This is the latest recevied weather packets stored in our database for station/object KO4WIL-13. If no packets are shown the sender has not sent any weather packets the latest 10 day(s).
| Time | Temp. | Humidity | Pressure | Rain* | Wind** | Luminosity | Snow |
|---|---|---|---|---|---|---|---|
| 1776930024 | 13.89° C | 67% | 970.4 hPa | 0 mm | - | - | - |
| 1776929722 | 13.89° C | 68% | 970.5 hPa | 0 mm | - | - | - |
| 1776929421 | 13.89° C | 69% | 970.5 hPa | 0 mm | - | - | - |
| 1776929119 | 15° C | 66% | 970.5 hPa | 0 mm | - | - | - |
| 1776928816 | 15.56° C | 64% | 970.4 hPa | 0 mm | - | - | - |
| 1776928514 | 15° C | 64% | 970.4 hPa | 0 mm | - | - | - |
| 1776928212 | 15° C | 64% | 970.4 hPa | 0 mm | - | - | - |
| 1776927910 | 15° C | 65% | 970.4 hPa | 0 mm | - | - | - |
| 1776927608 | 15° C | 64% | 970.5 hPa | 0 mm | - | - | - |
| 1776927306 | 14.44° C | 64% | 970.5 hPa | 0 mm | - | - | - |
| 1776927004 | 14.44° C | 65% | 970.5 hPa | 0 mm | - | - | - |
| 1776926702 | 14.44° C | 65% | 970.6 hPa | 0 mm | - | - | - |
| 1776926400 | 13.89° C | 66% | 970.6 hPa | 0 mm | - | - | - |
| 1776926098 | 13.89° C | 67% | 970.6 hPa | 0 mm | - | - | - |
| 1776925796 | 14.44° C | 66% | 970.7 hPa | 0 mm | - | - | - |
| 1776925494 | 14.44° C | 65% | 970.7 hPa | 0 mm | - | - | - |
| 1776925234 | 15° C | 64% | 970.8 hPa | 0 mm | - | - | - |
| 1776924933 | 15° C | 64% | 970.8 hPa | 0 mm | - | - | - |
| 1776924631 | 15° C | 63% | 970.8 hPa | 0 mm | - | - | - |
| 1776924329 | 15° C | 63% | 970.8 hPa | 0 mm | - | - | - |
| 1776924026 | 14.44° C | 64% | 970.8 hPa | 0 mm | - | - | - |
| 1776923725 | 14.44° C | 66% | 970.9 hPa | 0 mm | - | - | - |
| 1776923422 | 14.44° C | 65% | 970.9 hPa | 0 mm | - | - | - |
| 1776923120 | 14.44° C | 66% | 970.9 hPa | 0 mm | - | - | - |
| 1776922818 | 14.44° C | 66% | 971 hPa | 0 mm | - | - | - |
* Rain latest hour (hover to see other rain measurements)
** Current wind speed in m/s (hover to see current wind gust speed)